Time;durP1;ratioP1;P1;durP2;ratioP2;P2;SDS_P1;SDS_P2;PMS_P1;PMS_P2;Temp;Humidity;BMP_temperature;BMP_pressure;BME280_temperature;BME280_humidity;BME280_pressure;Samples;Min_cycle;Max_cycle;Signal;HPM_P1;HPM_P2
2022/06/15 00:00:40;;;;;;;6.60;2.80;;;18.20;99.90;;;;;;4995083;28;20133;-45
2022/06/15 00:03:06;;;;;;;5.50;2.90;;;18.20;99.90;;;;;;4966097;28;20594;-48
2022/06/15 00:05:31;;;;;;;4.90;2.50;;;18.20;99.90;;;;;;4988486;28;20177;-46
2022/06/15 00:07:57;;;;;;;6.30;2.90;;;18.20;99.90;;;;;;4991501;28;20038;-46
2022/06/15 00:10:23;;;;;;;4.57;2.70;;;18.20;99.90;;;;;;4979253;28;20564;-48
2022/06/15 00:12:49;;;;;;;7.13;3.30;;;18.50;99.90;;;;;;4983179;28;20046;-46
2022/06/15 00:15:15;;;;;;;7.07;2.95;;;18.20;99.90;;;;;;5012745;28;20037;-46
2022/06/15 00:17:41;;;;;;;3.88;2.88;;;18.20;99.90;;;;;;4978949;28;20045;-45
2022/06/15 00:20:08;;;;;;;7.50;2.95;;;18.20;99.90;;;;;;4981453;28;20552;-45
2022/06/15 00:22:34;;;;;;;7.43;2.85;;;18.20;99.90;;;;;;4980452;28;20037;-45
2022/06/15 00:25:00;;;;;;;5.38;3.10;;;18.20;99.90;;;;;;5012745;28;20224;-45
2022/06/15 00:27:25;;;;;;;5.95;3.25;;;18.20;99.90;;;;;;5014038;28;20071;-45
2022/06/15 00:29:51;;;;;;;4.30;2.58;;;18.30;99.90;;;;;;5013565;28;20536;-45
2022/06/15 00:32:17;;;;;;;6.43;2.97;;;18.50;99.90;;;;;;5049565;28;20124;-46
2022/06/15 00:34:43;;;;;;;7.70;2.85;;;18.20;99.90;;;;;;5020620;28;20040;-47
2022/06/15 00:37:08;;;;;;;4.60;3.03;;;18.50;99.90;;;;;;5058308;28;20068;-46
2022/06/15 00:39:34;;;;;;;5.80;3.22;;;18.20;99.90;;;;;;5061023;28;20098;-47
2022/06/15 00:42:01;;;;;;;5.45;3.08;;;18.20;99.90;;;;;;5008585;28;20060;-46
2022/06/15 00:44:28;;;;;;;5.88;2.38;;;18.30;99.90;;;;;;5056314;28;20346;-45
2022/06/15 00:46:58;;;;;;;7.85;3.15;;;18.20;99.90;;;;;;5063829;28;20024;-46
2022/06/15 00:49:33;;;;;;;5.82;2.78;;;18.10;99.90;;;;;;5019392;28;20106;-47
2022/06/15 00:52:08;;;;;;;5.03;2.72;;;18.10;99.90;;;;;;5055007;28;20052;-46
2022/06/15 00:54:34;;;;;;;6.72;2.70;;;18.00;99.90;;;;;;5057730;28;20032;-46
2022/06/15 00:57:02;;;;;;;5.07;2.95;;;18.00;99.90;;;;;;5061777;28;20090;-46
2022/06/15 00:59:32;;;;;;;6.68;3.20;;;18.00;99.90;;;;;;5005798;28;20036;-45
2022/06/15 01:01:58;;;;;;;9.73;3.67;;;17.90;99.90;;;;;;5051315;28;20484;-46
2022/06/15 01:04:26;;;;;;;4.22;3.10;;;17.80;99.90;;;;;;5058382;28;20208;-46
2022/06/15 01:07:15;;;;;;;8.85;3.58;;;17.60;99.90;;;;;;5053137;28;20545;-46
2022/06/15 01:09:56;;;;;;;7.90;3.58;;;17.50;99.90;;;;;;5062194;28;20043;-46
2022/06/15 01:12:48;;;;;;;6.85;3.40;;;17.40;99.90;;;;;;5054169;28;20423;-46
2022/06/15 01:15:22;;;;;;;4.75;2.97;;;17.30;99.90;;;;;;5057436;28;20358;-46
2022/06/15 01:18:15;;;;;;;6.28;3.42;;;17.30;99.90;;;;;;5054982;28;20135;-46
2022/06/15 01:20:49;;;;;;;8.52;3.53;;;17.30;99.90;;;;;;5056914;28;20029;-46
2022/06/15 01:23:18;;;;;;;4.70;3.03;;;17.20;99.90;;;;;;5004314;28;20092;-45
2022/06/15 01:26:03;;;;;;;5.80;3.20;;;17.10;99.90;;;;;;5056387;28;20498;-46
2022/06/15 01:28:54;;;;;;;5.50;2.90;;;17.00;99.90;;;;;;5052630;28;20091;-46
2022/06/15 01:31:42;;;;;;;5.00;3.35;;;16.90;99.90;;;;;;5052625;28;20384;-46
2022/06/15 01:34:07;;;;;;;6.72;3.15;;;16.80;99.90;;;;;;5031236;28;20037;-45
2022/06/15 01:36:51;;;;;;;6.13;3.25;;;16.80;99.90;;;;;;5052371;28;20452;-45
2022/06/15 01:39:43;;;;;;;5.07;3.35;;;16.80;99.90;;;;;;5061124;28;20029;-45
2022/06/15 01:42:27;;;;;;;3.72;2.92;;;16.50;99.90;;;;;;5010196;28;20037;-46
2022/06/15 01:44:58;;;;;;;4.47;3.30;;;16.60;99.90;;;;;;5003735;28;20041;-45
2022/06/15 01:47:26;;;;;;;6.13;3.75;;;16.50;99.90;;;;;;5009253;28;20045;-45
2022/06/15 01:50:03;;;;;;;7.25;4.07;;;16.40;99.90;;;;;;5001998;28;20027;-45
2022/06/15 01:52:36;;;;;;;5.43;3.63;;;16.40;99.90;;;;;;5001077;28;20100;-46
2022/06/15 01:55:24;;;;;;;7.15;3.47;;;16.50;99.90;;;;;;5004835;28;20173;-46
2022/06/15 01:57:54;;;;;;;6.72;3.30;;;16.50;99.90;;;;;;5002790;28;20034;-47
2022/06/15 02:00:20;;;;;;;8.68;3.85;;;16.40;99.90;;;;;;5005637;28;20034;-46
2022/06/15 02:02:55;;;;;;;5.15;3.08;;;16.40;99.90;;;;;;5010640;28;20366;-46
2022/06/15 02:05:48;;;;;;;5.30;3.10;;;16.30;99.90;;;;;;5008895;28;20061;-46
2022/06/15 02:08:40;;;;;;;4.72;3.15;;;16.30;99.90;;;;;;5008261;28;20497;-46
2022/06/15 02:11:09;;;;;;;;;;;16.20;99.90;;;;;;5006464;28;20081;-46
2022/06/15 02:13:46;;;;;;;6.10;3.55;;;;;;;;;;4986899;28;20316;-45
2022/06/15 02:16:18;;;;;;;6.28;3.60;;;16.20;99.90;;;;;;5009016;28;20034;-45
2022/06/15 02:18:46;;;;;;;7.85;3.97;;;16.10;99.90;;;;;;5023773;28;20045;-46
2022/06/15 02:21:15;;;;;;;6.10;4.45;;;;;;;;;;5061856;28;20116;-46
2022/06/15 02:23:42;;;;;;;6.88;4.30;;;;;;;;;;5051775;28;20029;-46
2022/06/15 02:26:09;;;;;;;7.72;4.43;;;;;;;;;;5001753;28;20411;-46
2022/06/15 02:28:40;;;;;;;5.45;3.40;;;;;;;;;;5052354;28;20086;-46
2022/06/15 02:31:07;;;;;;;5.00;3.50;;;;;;;;;;5050764;28;20040;-46
2022/06/15 02:33:37;;;;;;;7.03;3.72;;;;;;;;;;5052151;28;20756;-47
2022/06/15 02:36:04;;;;;;;8.52;3.75;;;;;;;;;;5059555;28;20050;-46
2022/06/15 02:38:31;;;;;;;5.53;3.30;;;;;;;;;;5057233;28;20109;-47
2022/06/15 02:40:57;;;;;;;4.32;3.28;;;;;;;;;;5059021;28;20090;-46
2022/06/15 02:43:28;;;;;;;6.53;3.90;;;;;;;;;;5055682;28;20124;-46
2022/06/15 02:45:56;;;;;;;6.95;3.70;;;;;;;;;;5057425;28;20025;-47
2022/06/15 02:48:22;;;;;;;6.22;3.60;;;;;;;;;;5057261;28;20103;-46
2022/06/15 02:51:12;;;;;;;7.03;4.18;;;;;;;;;;5060425;28;20606;-46
2022/06/15 02:53:39;;;;;;;8.23;5.82;;;;;;;;;;4955497;29;20039;-46
2022/06/15 02:56:07;;;;;;;5.65;3.63;;;;;;;;;;4955282;28;20067;-46
2022/06/15 02:58:41;;;;;;;6.25;3.65;;;;;;;;;;4956749;28;20043;-46
2022/06/15 03:01:07;;;;;;;9.13;4.45;;;;;;;;;;4956143;28;20090;-48
2022/06/15 03:03:33;;;;;;;5.90;3.55;;;;;;;;;;4956425;28;20035;-46
2022/06/15 03:05:59;;;;;;;7.32;3.63;;;;;;;;;;4958811;28;20035;-46
2022/06/15 03:08:26;;;;;;;11.65;4.03;;;;;;;;;;4955701;28;20039;-45
2022/06/15 03:10:53;;;;;;;12.82;4.30;;;;;;;;;;4956753;28;20049;-46
2022/06/15 03:13:19;;;;;;;6.57;4.00;;;;;;;;;;4954654;29;20042;-46
2022/06/15 03:15:45;;;;;;;5.10;3.67;;;;;;;;;;4924515;29;20042;-46
2022/06/15 03:18:12;;;;;;;6.40;3.35;;;;;;;;;;4950872;29;20047;-46
2022/06/15 03:20:38;;;;;;;6.95;3.20;;;;;;;;;;4944188;29;20530;-46
2022/06/15 03:23:06;;;;;;;5.53;3.20;;;;;;;;;;4940372;29;20122;-46
2022/06/15 03:25:33;;;;;;;6.53;3.08;;;;;;;;;;4935699;29;20039;-46
2022/06/15 03:27:59;;;;;;;5.25;3.42;;;;;;;;;;4936621;29;20046;-46
2022/06/15 03:30:25;;;;;;;4.70;2.90;;;;;;;;;;4981064;28;20061;-46
2022/06/15 03:32:51;;;;;;;6.70;3.05;;;;;;;;;;5005726;28;20465;-46
2022/06/15 03:35:17;;;;;;;5.97;3.42;;;;;;;;;;5038831;28;20079;-46
2022/06/15 03:37:43;;;;;;;4.50;2.88;;;;;;;;;;5043527;28;20041;-46
2022/06/15 03:40:10;;;;;;;4.57;3.30;;;;;;;;;;5008537;28;20412;-45
2022/06/15 03:42:40;;;;;;;6.68;3.17;;;;;;;;;;5037212;28;20034;-46
2022/06/15 03:45:06;;;;;;;4.13;3.08;;;;;;;;;;5042216;28;20091;-46
2022/06/15 03:47:32;;;;;;;5.50;3.40;;;;;;;;;;5034600;28;20029;-46
2022/06/15 03:49:58;;;;;;;13.43;4.43;;;16.30;99.90;;;;;;5046359;28;20025;-46
2022/06/15 03:52:27;;;;;;;8.82;3.65;;;16.40;99.90;;;;;;5040954;28;20037;-45
2022/06/15 03:54:53;;;;;;;5.43;3.17;;;16.40;99.90;;;;;;5036875;28;20028;-45
2022/06/15 03:57:20;;;;;;;5.78;2.80;;;16.40;99.90;;;;;;5040093;28;20025;-46
2022/06/15 03:59:47;;;;;;;4.70;3.13;;;16.30;99.90;;;;;;5041279;28;20119;-46
2022/06/15 04:02:13;;;;;;;6.80;3.35;;;16.30;99.90;;;;;;5039671;28;20030;-45
2022/06/15 04:04:39;;;;;;;9.02;3.80;;;16.30;99.90;;;;;;5000184;28;20489;-45
2022/06/15 04:08:34;;;;;;;7.97;3.92;;;16.30;99.90;;;;;;5041268;28;20112;-46
2022/06/15 04:09:52;;;;;;;6.55;3.33;;;;;;;;;;5033372;28;20028;-46
2022/06/15 04:12:18;;;;;;;7.55;3.47;;;;;;;;;;5036406;28;20056;-46
2022/06/15 04:14:44;;;;;;;5.88;3.10;;;;;;;;;;5037534;28;20043;-46
2022/06/15 04:17:11;;;;;;;5.88;2.88;;;;;;;;;;5050164;28;20183;-46
2022/06/15 04:19:37;;;;;;;4.40;2.58;;;;;;;;;;5058119;28;20412;-45
2022/06/15 04:22:03;;;;;;;6.63;3.20;;;16.70;99.90;;;;;;5066265;28;20035;-46
2022/06/15 04:24:30;;;;;;;5.93;2.83;;;16.90;99.90;;;;;;4993793;28;20175;-46
2022/06/15 04:26:57;;;;;;;4.93;2.88;;;16.90;99.90;;;;;;5058427;28;20029;-46
2022/06/15 04:29:24;;;;;;;7.75;2.60;;;16.90;99.90;;;;;;5058256;28;20065;-46
2022/06/15 04:31:50;;;;;;;7.70;4.28;;;17.10;99.90;;;;;;5059303;28;20035;-46
2022/06/15 04:34:17;;;;;;;7.93;3.13;;;17.20;99.90;;;;;;5021612;28;20036;-47
2022/06/15 04:36:44;;;;;;;6.90;2.90;;;17.20;99.90;;;;;;5060401;28;20037;-46
2022/06/15 04:39:12;;;;;;;6.65;3.30;;;17.40;99.90;;;;;;5060750;28;20035;-46
2022/06/15 04:41:39;;;;;;;6.38;3.45;;;17.50;99.90;;;;;;5054682;28;20350;-46
2022/06/15 04:44:07;;;;;;;11.73;3.22;;;17.70;99.90;;;;;;5059555;28;20033;-46
2022/06/15 04:46:33;;;;;;;7.88;2.70;;;17.80;99.90;;;;;;5053504;28;20032;-46
2022/06/15 04:49:00;;;;;;;8.52;3.28;;;18.00;99.90;;;;;;5053708;28;20040;-46
2022/06/15 04:51:29;;;;;;;8.68;3.30;;;18.10;99.90;;;;;;5053668;28;20040;-46
2022/06/15 04:53:57;;;;;;;10.30;3.03;;;18.30;99.90;;;;;;5053286;28;20036;-46
2022/06/15 04:56:24;;;;;;;13.23;3.25;;;18.60;99.90;;;;;;4979120;28;20038;-46
2022/06/15 04:58:49;;;;;;;15.65;4.60;;;18.60;99.90;;;;;;5011670;28;20389;-46
2022/06/15 05:01:16;;;;;;;11.30;3.45;;;18.80;99.90;;;;;;5012030;28;20042;-46
2022/06/15 05:03:41;;;;;;;10.20;2.85;;;18.70;99.90;;;;;;5011851;28;20036;-45
2022/06/15 05:06:17;;;;;;;7.38;2.70;;;18.90;99.90;;;;;;5010527;28;20034;-46
2022/06/15 05:08:43;;;;;;;13.23;3.17;;;19.00;99.90;;;;;;5009778;28;20060;-45
2022/06/15 05:11:09;;;;;;;6.60;3.20;;;19.10;99.90;;;;;;5011347;28;20469;-46
2022/06/15 05:13:34;;;;;;;6.88;3.55;;;19.10;99.90;;;;;;4993841;28;20041;-46
2022/06/15 05:16:00;;;;;;;5.10;3.33;;;19.10;99.90;;;;;;5011086;28;20034;-45
2022/06/15 05:18:26;;;;;;;5.30;2.97;;;19.30;99.90;;;;;;4978859;28;20218;-46
2022/06/15 05:20:52;;;;;;;6.75;2.72;;;19.30;99.90;;;;;;5011399;28;20065;-46
2022/06/15 05:23:18;;;;;;;4.82;3.10;;;19.40;99.90;;;;;;5011338;28;20026;-46
2022/06/15 05:25:44;;;;;;;8.60;3.78;;;19.50;99.90;;;;;;4978998;28;20108;-46
2022/06/15 05:28:12;;;;;;;4.43;3.00;;;19.60;99.90;;;;;;5010907;28;20076;-45
2022/06/15 05:30:38;;;;;;;5.50;3.08;;;19.80;99.90;;;;;;5010136;28;20096;-46
2022/06/15 05:33:04;;;;;;;6.45;3.00;;;19.90;99.90;;;;;;5019859;28;20431;-46
2022/06/15 05:35:31;;;;;;;6.53;3.40;;;20.10;99.90;;;;;;5052894;28;20028;-46
2022/06/15 05:37:56;;;;;;;4.97;2.88;;;20.20;99.90;;;;;;5053083;28;20097;-45
2022/06/15 05:40:22;;;;;;;5.82;3.28;;;20.30;99.90;;;;;;5052981;28;20092;-46
2022/06/15 05:42:48;;;;;;;5.82;2.85;;;20.40;99.90;;;;;;5053118;28;20029;-46
2022/06/15 05:45:14;;;;;;;5.80;3.10;;;20.50;99.90;;;;;;5052791;28;20482;-46
2022/06/15 05:47:39;;;;;;;6.00;2.47;;;20.70;99.90;;;;;;4969316;28;20032;-46
2022/06/15 05:50:06;;;;;;;9.05;3.40;;;;;;;;;;5052467;28;20480;-46
2022/06/15 05:52:32;;;;;;;7.45;3.15;;;21.10;99.90;;;;;;5035086;28;20036;-49
2022/06/15 05:54:58;;;;;;;4.90;3.13;;;21.20;99.90;;;;;;5050725;28;20029;-46
2022/06/15 05:57:25;;;;;;;9.25;4.25;;;21.30;99.90;;;;;;5046811;28;20017;-46
2022/06/15 05:59:54;;;;;;;6.38;3.35;;;21.40;99.90;;;;;;5042514;28;20044;-46
2022/06/15 06:02:21;;;;;;;6.40;3.22;;;21.60;99.90;;;;;;5030168;28;20112;-46
2022/06/15 06:04:47;;;;;;;6.70;3.40;;;21.70;99.90;;;;;;4999784;28;20040;-46
2022/06/15 06:07:13;;;;;;;10.50;3.70;;;21.80;99.90;;;;;;5049778;28;20037;-47
2022/06/15 06:09:40;;;;;;;5.78;3.10;;;22.00;99.90;;;;;;5052618;28;20090;-47
2022/06/15 06:12:07;;;;;;;7.80;3.15;;;22.20;99.90;;;;;;5051933;28;20104;-45
2022/06/15 06:14:33;;;;;;;7.10;3.85;;;22.30;99.90;;;;;;4978098;28;20511;-46
2022/06/15 06:16:59;;;;;;;10.10;3.67;;;22.40;99.90;;;;;;5031788;28;20045;-46
2022/06/15 06:19:25;;;;;;;6.78;3.25;;;22.60;99.90;;;;;;5036146;28;20052;-46
2022/06/15 06:21:51;;;;;;;10.00;3.38;;;22.80;99.90;;;;;;4982185;28;20077;-46
2022/06/15 06:24:16;;;;;;;5.97;3.10;;;23.10;99.90;;;;;;5016412;28;20108;-46
2022/06/15 06:26:42;;;;;;;5.18;3.00;;;23.20;99.90;;;;;;4994789;28;20034;-46
2022/06/15 06:29:14;;;;;;;5.38;3.40;;;23.40;99.90;;;;;;5036110;28;20040;-46
2022/06/15 06:31:40;;;;;;;7.90;3.03;;;23.30;99.90;;;;;;5036688;28;20026;-46
2022/06/15 06:34:06;;;;;;;14.60;3.47;;;23.40;99.90;;;;;;4980558;28;20030;-47
2022/06/15 06:36:38;;;;;;;8.10;3.78;;;23.50;99.90;;;;;;5020635;28;20101;-45
2022/06/15 06:39:09;;;;;;;5.75;2.50;;;23.70;99.90;;;;;;5026396;28;20025;-46
2022/06/15 06:41:35;;;;;;;11.93;4.05;;;23.60;99.90;;;;;;4965744;28;20035;-46
2022/06/15 06:44:05;;;;;;;7.00;2.60;;;23.80;99.90;;;;;;4968917;28;20112;-46
2022/06/15 06:46:32;;;;;;;5.95;3.08;;;23.80;99.90;;;;;;4925818;28;20138;-46
2022/06/15 06:48:58;;;;;;;6.97;3.10;;;23.70;99.90;;;;;;4962425;28;20511;-46
2022/06/15 06:51:26;;;;;;;6.00;3.08;;;23.60;99.90;;;;;;4964344;28;20050;-46
2022/06/15 06:53:52;;;;;;;5.28;2.85;;;23.80;99.90;;;;;;4962712;28;20039;-47
2022/06/15 06:56:18;;;;;;;5.95;3.22;;;;;;;;;;4966973;28;20035;-46
2022/06/15 06:58:44;;;;;;;4.43;2.70;;;;;;;;;;4970852;28;20447;-46
2022/06/15 07:01:10;;;;;;;8.38;2.78;;;24.60;99.90;;;;;;4973250;28;20042;-46
2022/06/15 07:03:36;;;;;;;8.60;3.38;;;;;;;;;;4941822;28;20034;-46
2022/06/15 07:06:05;;;;;;;11.57;3.38;;;24.90;99.90;;;;;;4972334;28;20071;-46
2022/06/15 07:08:31;;;;;;;8.00;2.95;;;25.20;99.90;;;;;;4964976;28;20034;-47
2022/06/15 07:10:58;;;;;;;7.80;2.75;;;;;;;;;;4973022;28;20059;-47
2022/06/15 07:13:24;;;;;;;6.80;2.85;;;;;;;;;;5013963;28;20550;-46
2022/06/15 07:15:50;;;;;;;8.00;3.00;;;;;;;;;;4981172;28;20046;-46
2022/06/15 07:18:16;;;;;;;7.22;2.72;;;;;;;;;;5030826;28;20045;-45
2022/06/15 07:20:42;;;;;;;9.13;3.38;;;;;;;;;;5024401;28;20025;-46
2022/06/15 07:23:08;;;;;;;4.68;2.50;;;;;;;;;;5023012;28;20026;-46
2022/06/15 07:25:35;;;;;;;5.05;2.20;;;;;;;;;;5026750;28;20053;-46
2022/06/15 07:28:02;;;;;;;5.35;2.22;;;;;;;;;;5031498;28;20079;-46
2022/06/15 07:30:30;;;;;;;4.55;2.40;;;26.90;99.90;;;;;;5029283;28;20072;-46
2022/06/15 07:32:56;;;;;;;7.45;2.20;;;26.70;99.90;;;;;;5024207;28;20030;-49
2022/06/15 07:35:28;;;;;;;4.93;2.35;;;26.40;99.90;;;;;;5007793;28;20045;-47
2022/06/15 07:37:55;;;;;;;6.82;2.80;;;;;;;;;;4997188;28;20038;-46
2022/06/15 07:40:23;;;;;;;5.45;2.70;;;;;;;;;;5024202;28;20030;-46
2022/06/15 07:42:50;;;;;;;5.45;2.55;;;27.10;99.90;;;;;;5027674;28;20061;-47
2022/06/15 07:45:17;;;;;;;8.50;3.00;;;;;;;;;;5024490;28;20030;-46
2022/06/15 07:50:28;;;;;;;5.72;2.60;;;27.70;99.90;;;;;;4988830;28;20389;-46
2022/06/15 07:52:54;;;;;;;3.35;2.10;;;27.70;94.30;;;;;;5013283;28;20033;-45
2022/06/15 07:55:25;;;;;;;6.05;2.90;;;27.80;92.90;;;;;;5027597;28;20032;-46
2022/06/15 07:57:51;;;;;;;3.85;2.53;;;27.90;92.50;;;;;;5027864;28;20112;-46
2022/06/15 08:00:18;;;;;;;4.85;2.10;;;27.60;92.00;;;;;;5023574;28;20037;-45
2022/06/15 08:02:44;;;;;;;9.38;2.30;;;27.40;92.40;;;;;;5019535;28;20053;-45
2022/06/15 08:05:11;;;;;;;3.88;2.00;;;27.40;92.30;;;;;;5024815;28;20068;-45
2022/06/15 08:07:37;;;;;;;5.45;2.17;;;27.60;92.20;;;;;;5016943;28;20600;-46
2022/06/15 08:10:04;;;;;;;3.47;2.15;;;27.60;92.30;;;;;;5025502;28;20033;-46
2022/06/15 08:12:30;;;;;;;6.38;2.10;;;27.50;92.50;;;;;;5025236;28;20030;-46
2022/06/15 08:14:59;;;;;;;12.93;3.97;;;27.60;92.00;;;;;;5022921;28;20034;-46
2022/06/15 08:17:29;;;;;;;6.45;2.10;;;27.60;92.80;;;;;;5013161;28;20057;-45
2022/06/15 08:20:15;;;;;;;4.78;2.13;;;;;;;;;;4996396;28;20048;-46
2022/06/15 08:22:43;;;;;;;5.95;2.22;;;;;;;;;;5050491;28;20472;-46
2022/06/15 08:25:15;;;;;;;4.68;2.22;;;28.50;99.90;;;;;;5053240;28;20044;-48
2022/06/15 08:27:42;;;;;;;6.85;2.42;;;;;;;;;;5052785;28;20032;-47
2022/06/15 08:30:10;;;;;;;8.20;2.90;;;;;;;;;;5051875;28;20033;-47
2022/06/15 08:32:36;;;;;;;3.58;1.85;;;28.20;99.90;;;;;;5042334;28;20104;-47
2022/06/15 08:35:03;;;;;;;4.15;1.90;;;28.00;99.00;;;;;;5049349;28;20480;-47
2022/06/15 08:37:29;;;;;;;3.88;2.20;;;28.10;99.70;;;;;;5011594;28;20029;-47
2022/06/15 08:39:55;;;;;;;8.73;2.25;;;28.00;99.40;;;;;;5051452;28;20028;-46
2022/06/15 08:42:28;;;;;;;6.15;1.85;;;28.50;99.90;;;;;;5052966;28;20029;-46
2022/06/15 08:45:12;;;;;;;6.57;1.85;;;28.30;99.90;;;;;;5017968;28;20033;-47
2022/06/15 08:47:59;;;;;;;5.03;2.42;;;28.20;99.90;;;;;;5052360;28;20025;-46
2022/06/15 08:50:50;;;;;;;5.22;1.80;;;28.10;99.90;;;;;;5053545;28;20033;-47
2022/06/15 08:53:16;;;;;;;3.33;2.15;;;28.50;99.90;;;;;;4961155;28;20138;-46
2022/06/15 08:55:45;;;;;;;5.03;1.95;;;;;;;;;;4982338;28;20121;-48
2022/06/15 08:58:31;;;;;;;5.75;1.95;;;;;;;;;;4968479;28;20190;-50
2022/06/15 09:01:01;;;;;;;4.82;2.00;;;;;;;;;;4961666;28;20034;-48
2022/06/15 09:03:27;;;;;;;5.30;2.28;;;;;;;;;;4972821;28;20034;-49
2022/06/15 09:06:03;;;;;;;6.40;1.88;;;;;;;;;;4973670;28;20026;-48
2022/06/15 09:08:29;;;;;;;4.57;2.10;;;;;;;;;;4976734;28;20134;-47
2022/06/15 09:11:09;;;;;;;5.97;2.83;;;;;;;;;;4979884;28;20031;-54
2022/06/15 09:13:52;;;;;;;6.72;2.35;;;30.00;98.50;;;;;;4965770;28;20050;-48
2022/06/15 09:16:47;;;;;;;6.00;2.10;;;29.80;85.40;;;;;;4973392;28;20035;-48
2022/06/15 09:19:26;;;;;;;4.07;1.77;;;29.40;84.40;;;;;;4951476;29;20550;-47
2022/06/15 09:22:10;;;;;;;5.07;1.75;;;29.10;99.60;;;;;;4958165;28;20360;-48
2022/06/15 09:24:35;;;;;;;5.90;2.55;;;28.90;84.20;;;;;;4929376;29;20044;-48
2022/06/15 09:27:19;;;;;;;2.85;1.50;;;29.20;84.20;;;;;;4933158;29;20519;-48
2022/06/15 09:29:52;;;;;;;4.18;1.85;;;29.50;82.20;;;;;;4951557;28;20060;-48
2022/06/15 09:32:23;;;;;;;3.35;1.95;;;;;;;;;;4990915;28;20035;-48
2022/06/15 09:34:57;;;;;;;5.90;2.20;;;30.40;81.70;;;;;;4990696;28;20046;-49
2022/06/15 09:37:26;;;;;;;4.60;2.17;;;30.60;85.40;;;;;;4990832;28;20104;-49
2022/06/15 09:39:52;;;;;;;5.00;2.45;;;30.40;84.60;;;;;;4991191;28;20042;-48
2022/06/15 09:42:33;;;;;;;6.50;1.92;;;30.70;85.80;;;;;;4994617;28;20030;-49
2022/06/15 09:45:23;;;;;;;3.90;2.17;;;30.40;83.40;;;;;;4994944;28;20137;-48
2022/06/15 09:48:13;;;;;;;6.85;2.20;;;30.30;83.90;;;;;;4994413;28;20030;-48
2022/06/15 09:50:58;;;;;;;4.32;1.90;;;30.10;84.50;;;;;;4994541;28;20054;-48
2022/06/15 09:53:41;;;;;;;5.10;2.35;;;29.50;84.10;;;;;;4994545;28;20166;-49
2022/06/15 09:56:11;;;;;;;4.65;1.90;;;29.90;86.10;;;;;;5027363;28;20029;-48
2022/06/15 09:59:01;;;;;;;3.50;1.55;;;30.00;84.00;;;;;;5035842;28;20037;-48
2022/06/15 10:01:32;;;;;;;5.22;2.00;;;30.40;83.10;;;;;;5032735;28;20033;-48
2022/06/15 10:04:00;;;;;;;2.40;1.88;;;;;;;;;;5036860;28;20540;-48
2022/06/15 10:06:38;;;;;;;7.88;2.47;;;30.80;99.90;;;;;;5036249;28;20025;-48
2022/06/15 10:09:08;;;;;;;3.05;1.90;;;31.00;83.40;;;;;;4998117;28;20485;-48
2022/06/15 10:11:36;;;;;;;3.97;1.80;;;;;;;;;;4999010;28;20088;-48
2022/06/15 10:14:23;;;;;;;4.72;1.80;;;31.50;99.90;;;;;;5036268;28;20120;-48
2022/06/15 10:16:55;;;;;;;3.15;2.00;;;;;;;;;;5037933;28;20041;-48
2022/06/15 10:19:22;;;;;;;3.80;2.00;;;31.70;89.60;;;;;;5055922;28;20017;-48
2022/06/15 10:21:52;;;;;;;5.35;2.03;;;;;;;;;;5055717;28;20028;-48
2022/06/15 10:24:42;;;;;;;4.53;2.15;;;31.50;99.90;;;;;;4995474;28;20034;-49
2022/06/15 10:27:32;;;;;;;10.63;2.13;;;31.70;89.90;;;;;;5055723;28;20028;-48
2022/06/15 10:30:21;;;;;;;6.32;1.83;;;32.10;88.10;;;;;;5020100;28;20040;-48
2022/06/15 10:33:03;;;;;;;3.58;1.58;;;31.70;87.30;;;;;;5055184;28;20029;-48
2022/06/15 10:35:31;;;;;;;4.03;1.92;;;31.60;84.30;;;;;;5055947;28;20029;-48
2022/06/15 10:38:01;;;;;;;2.50;1.60;;;31.60;83.80;;;;;;5055160;28;20025;-48
2022/06/15 10:40:31;;;;;;;4.35;1.60;;;31.90;84.00;;;;;;5055290;28;20033;-48
2022/06/15 10:43:16;;;;;;;7.32;2.00;;;32.20;84.60;;;;;;5047375;28;20032;-48
2022/06/15 10:45:57;;;;;;;4.50;2.17;;;32.70;80.20;;;;;;5054323;28;20400;-48
2022/06/15 10:48:39;;;;;;;3.55;1.73;;;32.60;80.20;;;;;;5055046;28;20071;-49
2022/06/15 10:51:15;;;;;;;3.65;1.90;;;32.00;78.90;;;;;;5055698;28;20037;-48
2022/06/15 10:53:40;;;;;;;14.90;2.42;;;31.60;80.30;;;;;;5054266;28;20104;-48
2022/06/15 11:02:12;;;;;;;2.97;1.70;;;;;;;;;;5054863;28;20434;-48
2022/06/15 11:04:58;;;;;;;8.10;2.42;;;;;;;;;;5054699;28;20029;-48
2022/06/15 11:07:26;;;;;;;3.58;1.70;;;;;;;;;;5009403;28;20485;-48
2022/06/15 11:09:56;;;;;;;3.97;1.80;;;;;;;;;;5042824;28;20052;-49
2022/06/15 11:12:45;;;;;;;4.95;1.60;;;;;;;;;;5054555;28;20087;-48
2022/06/15 11:15:14;;;;;;;4.70;1.42;;;;;;;;;;4976125;28;20434;-48
2022/06/15 11:18:04;;;;;;;16.80;4.75;;;33.30;97.90;;;;;;4983032;28;20430;-48
2022/06/15 11:20:54;;;;;;;8.85;3.08;;;33.20;76.40;;;;;;4982402;28;20052;-48
2022/06/15 11:23:49;;;;;;;3.42;1.85;;;33.30;86.30;;;;;;4987160;28;20497;-48
2022/06/15 11:26:57;;;;;;;8.05;2.42;;;33.60;80.20;;;;;;4976016;28;20073;-48
2022/06/15 11:30:02;;;;;;;4.65;1.75;;;33.80;76.40;;;;;;4964963;28;20034;-48
2022/06/15 11:32:51;;;;;;;5.05;1.80;;;33.80;91.30;;;;;;4917122;29;20048;-48
2022/06/15 11:35:21;;;;;;;5.03;1.70;;;34.00;76.20;;;;;;4916374;29;20080;-48
2022/06/15 11:38:08;;;;;;;5.68;1.98;;;34.00;76.80;;;;;;4916000;29;20032;-48
2022/06/15 11:40:57;;;;;;;4.47;1.75;;;34.00;75.30;;;;;;4916633;29;20610;-48
2022/06/15 11:43:43;;;;;;;4.35;1.80;;;34.40;78.20;;;;;;4916318;29;20044;-48
2022/06/15 11:46:18;;;;;;;3.05;1.63;;;34.30;78.70;;;;;;4915809;29;20052;-48
2022/06/15 11:49:01;;;;;;;3.92;1.92;;;33.90;77.50;;;;;;4915677;29;20044;-48
2022/06/15 11:51:47;;;;;;;3.42;1.65;;;34.00;76.70;;;;;;4919313;29;20098;-48
2022/06/15 11:54:34;;;;;;;6.18;2.00;;;34.40;76.30;;;;;;4936023;29;20095;-48
2022/06/15 11:57:14;;;;;;;2.15;1.35;;;34.80;74.80;;;;;;4934946;29;20044;-48
2022/06/15 11:59:54;;;;;;;4.38;1.80;;;34.60;75.50;;;;;;4935141;29;20043;-48
2022/06/15 12:02:26;;;;;;;4.47;1.70;;;34.50;74.50;;;;;;4934895;29;20039;-49
2022/06/15 12:05:23;;;;;;;5.43;1.88;;;34.20;73.90;;;;;;4934381;29;20040;-49
2022/06/15 12:08:33;;;;;;;7.28;2.30;;;34.50;73.90;;;;;;4978389;28;20078;-48
2022/06/15 12:12:37;;;;;;;6.13;1.77;;;34.60;75.10;;;;;;4981308;28;20041;-48
2022/06/15 12:14:24;;;;;;;4.30;1.70;;;34.80;73.70;;;;;;4979046;28;20194;-48
2022/06/15 12:17:12;;;;;;;4.30;1.55;;;35.10;74.20;;;;;;4974476;28;20046;-49
2022/06/15 12:20:05;;;;;;;3.33;1.55;;;35.10;72.40;;;;;;4954500;28;20047;-49
2022/06/15 12:22:58;;;;;;;3.28;1.73;;;33.50;72.20;;;;;;4978533;28;20027;-49
2022/06/15 12:25:31;;;;;;;1.98;1.45;;;34.10;72.40;;;;;;4979776;28;20050;-49
2022/06/15 12:28:17;;;;;;;5.13;1.52;;;34.40;73.10;;;;;;4984148;28;20467;-48
2022/06/15 12:30:50;;;;;;;3.60;1.65;;;33.40;72.20;;;;;;4986187;28;20475;-49
2022/06/15 12:33:37;;;;;;;6.68;1.48;;;32.90;71.70;;;;;;4982594;28;20419;-49
2022/06/15 12:36:15;;;;;;;4.28;1.60;;;33.00;73.50;;;;;;4981959;28;20086;-49
2022/06/15 12:38:47;;;;;;;3.25;1.75;;;34.10;73.70;;;;;;4981994;28;20063;-48
2022/06/15 12:44:04;;;;;;;2.92;1.48;;;34.40;72.20;;;;;;4992371;28;20051;-48
2022/06/15 12:46:30;;;;;;;12.88;2.30;;;34.90;74.00;;;;;;5053240;28;20036;-48
2022/06/15 12:48:56;;;;;;;4.78;2.00;;;35.10;72.40;;;;;;5052709;28;20103;-49
2022/06/15 12:51:54;;;;;;;5.93;2.00;;;35.40;73.10;;;;;;5034810;28;20033;-48
2022/06/15 12:54:25;;;;;;;4.00;2.00;;;35.20;70.90;;;;;;5053582;28;20106;-49
2022/06/15 12:56:53;;;;;;;3.03;1.85;;;35.30;71.20;;;;;;4998290;28;20052;-48
2022/06/15 12:59:40;;;;;;;3.45;1.90;;;35.00;72.10;;;;;;5051677;28;20037;-49
2022/06/15 13:02:31;;;;;;;5.68;1.73;;;34.70;71.40;;;;;;5052390;28;20067;-48
2022/06/15 13:05:17;;;;;;;3.33;1.63;;;34.90;72.20;;;;;;5052732;28;20037;-48
2022/06/15 13:07:43;;;;;;;4.80;1.33;;;34.70;70.70;;;;;;5052617;28;20043;-48
2022/06/15 13:10:17;;;;;;;3.22;1.52;;;34.90;70.70;;;;;;4985839;28;20127;-49
2022/06/15 13:12:42;;;;;;;5.07;1.67;;;34.90;71.60;;;;;;5001140;28;20073;-49
2022/06/15 13:15:26;;;;;;;2.03;1.35;;;35.40;71.50;;;;;;5052246;28;20444;-48
2022/06/15 13:18:09;;;;;;;3.92;1.95;;;34.90;70.00;;;;;;5052192;28;20551;-49
2022/06/15 13:20:47;;;;;;;4.45;1.60;;;34.70;70.60;;;;;;5052472;28;20037;-49
2022/06/15 13:23:24;;;;;;;4.13;1.67;;;34.70;70.10;;;;;;4997641;28;20034;-49
2022/06/15 13:25:52;;;;;;;2.65;1.50;;;35.20;70.60;;;;;;5053035;28;20040;-48
2022/06/15 13:28:22;;;;;;;4.65;1.85;;;35.40;69.60;;;;;;5052199;28;20025;-49
2022/06/15 13:30:47;;;;;;;6.90;1.80;;;35.70;70.40;;;;;;5053027;28;20029;-49
2022/06/15 13:33:14;;;;;;;3.53;1.50;;;35.80;69.10;;;;;;5052293;28;20103;-49
2022/06/15 13:35:46;;;;;;;6.15;2.05;;;35.80;71.80;;;;;;5052314;28;20068;-48
2022/06/15 13:38:20;;;;;;;2.00;1.30;;;35.50;70.70;;;;;;5052918;28;20036;-48
2022/06/15 13:40:58;;;;;;;2.00;1.20;;;35.50;72.20;;;;;;5053153;28;20098;-48
2022/06/15 13:43:43;;;;;;;4.47;1.85;;;35.30;70.60;;;;;;5051988;28;20025;-49
2022/06/15 13:46:27;;;;;;;5.28;2.30;;;35.40;71.40;;;;;;5033194;28;20037;-49
2022/06/15 13:49:03;;;;;;;4.32;1.40;;;35.10;71.80;;;;;;5052075;28;20072;-49
2022/06/15 13:51:47;;;;;;;3.45;1.67;;;34.90;72.60;;;;;;5052150;28;20032;-49